Time;durP1;ratioP1;P1;durP2;ratioP2;P2;SDS_P1;SDS_P2;PMS_P1;PMS_P2;Temp;Humidity;BMP_temperature;BMP_pressure;BME280_temperature;BME280_humidity;BME280_pressure;Samples;Min_cycle;Max_cycle;Signal;HPM_P1;HPM_P2
2021/01/01 00:04:08;;;;;;;109.72;44.08;;;;;;;-0.23;91.66;98256.67;4458608;78;21168;-91
2021/01/01 00:10:11;;;;;;;104.92;43.78;;;;;;;-0.23;91.66;98256.67;4454808;78;21133;-91
2021/01/01 00:16:14;;;;;;;108.22;43.10;;;;;;;-0.05;91.55;98274.34;4459101;78;21145;-92
2021/01/01 00:22:15;;;;;;;110.93;45.40;;;;;;;-0.03;91.50;98269.41;4471362;78;21130;-90
2021/01/01 00:28:17;;;;;;;112.25;44.63;;;;;;;-0.02;91.45;98271.77;4462062;78;21624;-91
2021/01/01 00:34:18;;;;;;;110.88;44.45;;;;;;;-0.13;91.30;98277.85;4457275;78;21579;-91
2021/01/01 00:40:20;;;;;;;104.92;42.88;;;;;;;-0.08;91.71;98276.34;4463075;78;21676;-91
2021/01/01 00:46:24;;;;;;;100.35;41.30;;;;;;;-0.07;91.59;98286.77;4439137;78;21833;-92
2021/01/01 00:52:27;;;;;;;92.35;36.98;;;;;;;-0.03;91.43;98284.20;4425574;79;21638;-92
2021/01/01 00:58:29;;;;;;;105.97;44.10;;;;;;;-0.01;91.46;98286.83;4449378;78;21133;-92
2021/01/01 01:04:31;;;;;;;96.33;38.37;;;;;;;-0.17;91.66;98280.39;4447402;78;21579;-91
2021/01/01 01:10:32;;;;;;;101.00;39.20;;;;;;;-0.18;91.51;98289.58;4454594;78;21153;-91
2021/01/01 01:16:34;;;;;;;94.20;36.90;;;;;;;-0.23;91.32;98286.27;4439796;78;21319;-91
2021/01/01 01:22:35;;;;;;;110.63;43.02;;;;;;;-0.43;91.43;98281.58;4447364;78;21154;-92
2021/01/01 01:28:41;;;;;;;96.03;39.73;;;;;;;-0.43;91.57;98287.76;4449358;78;21149;-92
2021/01/01 01:34:43;;;;;;;96.37;38.30;;;;;;;-0.34;91.98;98279.66;4450852;78;21431;-90
2021/01/01 01:40:44;;;;;;;111.92;41.83;;;;;;;-0.26;91.82;98290.39;4447901;78;21113;-93
2021/01/01 01:46:46;;;;;;;116.57;44.97;;;;;;;-0.23;91.78;98294.33;4451326;78;21154;-92
2021/01/01 01:52:48;;;;;;;107.87;43.27;;;;;;;-0.24;91.69;98292.77;4449662;78;21152;-91
2021/01/01 01:58:50;;;;;;;118.02;45.05;;;;;;;-0.31;91.40;98301.32;4452584;79;21132;-91
2021/01/01 02:04:51;;;;;;;106.37;38.73;;;;;;;-0.28;91.76;98302.02;4441133;78;21142;-92
2021/01/01 02:10:58;;;;;;;94.87;37.30;;;;;;;-0.39;91.80;98302.67;4451237;78;21425;-90
2021/01/01 02:17:00;;;;;;;94.77;37.20;;;;;;;-0.62;91.85;98307.48;4436148;78;21610;-90
2021/01/01 02:23:02;;;;;;;112.88;42.20;;;;;;;-0.73;92.21;98298.16;4435849;78;21571;-91
2021/01/01 02:29:04;;;;;;;109.87;41.73;;;;;;;-0.67;92.39;98293.39;4440773;78;21148;-91
2021/01/01 02:35:07;;;;;;;86.30;34.23;;;;;;;-0.68;92.37;98282.42;4438804;78;21129;-91
2021/01/01 02:41:09;;;;;;;115.05;43.70;;;;;;;-0.63;92.24;98280.38;4409701;79;21120;-91
2021/01/01 02:47:10;;;;;;;90.57;39.33;;;;;;;-0.65;92.47;98283.12;4409034;79;21567;-92
2021/01/01 02:53:12;;;;;;;103.03;38.37;;;;;;;-0.70;92.47;98288.66;4422857;79;21154;-92
2021/01/01 02:59:14;;;;;;;109.47;40.13;;;;;;;-0.80;92.48;98278.26;4427418;79;21685;-90
2021/01/01 03:05:16;;;;;;;102.00;40.13;;;;;;;-0.74;92.59;98281.81;4445663;79;21248;-91
2021/01/01 03:11:19;;;;;;;113.73;41.43;;;;;;;-0.57;92.70;98280.98;4443395;78;21146;-91
2021/01/01 03:17:21;;;;;;;114.70;41.77;;;;;;;-0.42;92.55;98285.30;4435205;79;21485;-92
2021/01/01 03:23:22;;;;;;;113.07;39.87;;;;;;;-0.39;92.42;98280.61;4442522;79;21157;-91
2021/01/01 03:29:24;;;;;;;113.13;40.77;;;;;;;-0.35;92.04;98286.15;4443184;79;21135;-90
2021/01/01 03:35:26;;;;;;;108.23;40.50;;;;;;;-0.47;92.10;98286.80;4426090;78;21097;-90
2021/01/01 03:41:28;;;;;;;128.27;43.57;;;;;;;-0.51;91.99;98291.25;4435235;78;21188;-92
2021/01/01 03:47:29;;;;;;;199.37;60.07;;;;;;;-0.53;92.52;98298.04;4450849;78;21121;-90
2021/01/01 03:53:31;;;;;;;106.13;40.07;;;;;;;-0.43;92.12;98299.86;4449356;78;21157;-92
2021/01/01 03:59:32;;;;;;;106.67;39.70;;;;;;;-0.46;92.15;98288.95;4450052;78;21153;-91
2021/01/01 04:05:34;;;;;;;103.30;37.37;;;;;;;-0.41;92.40;98287.44;4447661;78;22165;-91
2021/01/01 04:11:39;;;;;;;100.20;37.63;;;;;;;-0.30;92.42;98288.09;4445987;78;21587;-92
2021/01/01 04:17:40;;;;;;;100.77;36.97;;;;;;;-0.37;91.94;98288.36;4450951;78;21141;-90
2021/01/01 04:23:42;;;;;;;90.60;36.60;;;;;;;-0.39;92.05;98283.30;4447750;78;21137;-91
2021/01/01 04:29:44;;;;;;;85.63;33.67;;;;;;;-0.33;92.10;98286.63;4452781;78;21162;-91
2021/01/01 04:35:45;;;;;;;85.33;32.50;;;;;;;-0.50;91.87;98282.06;4449603;78;21526;-91
2021/01/01 04:41:51;;;;;;;82.40;33.93;;;;;;;-0.54;91.98;98283.83;4447777;78;21192;-92
2021/01/01 04:47:54;;;;;;;92.92;35.90;;;;;;;-0.40;92.28;98294.38;4437618;79;21129;-91
2021/01/01 04:53:57;;;;;;;77.13;31.60;;;;;;;-0.37;91.83;98295.88;4442431;78;21164;-92
2021/01/01 04:59:58;;;;;;;82.70;33.20;;;;;;;-0.58;91.73;98299.00;4446299;78;21548;-91
2021/01/01 05:06:00;;;;;;;85.53;35.00;;;;;;;-0.68;92.07;98307.41;4452040;78;21474;-91
2021/01/01 05:12:07;;;;;;;74.03;30.13;;;;;;;-0.66;91.97;98319.95;4454618;78;21136;-90
2021/01/01 05:18:25;;;;;;;67.53;29.20;;;;;;;-0.70;91.72;98328.98;4451354;78;21624;-91
2021/01/01 05:24:28;;;;;;;79.37;32.20;;;;;;;-0.63;92.03;98326.07;4451776;78;21153;-90
2021/01/01 05:30:35;;;;;;;78.07;31.60;;;;;;;-0.78;91.86;98329.77;4447788;78;22484;-91
2021/01/01 05:36:45;;;;;;;79.73;31.73;;;;;;;-0.69;91.83;98335.95;4453875;78;22258;-90
2021/01/01 05:42:47;;;;;;;79.73;32.00;;;;;;;-0.71;91.76;98339.50;4435201;78;21177;-90
2021/01/01 05:48:54;;;;;;;90.03;33.63;;;;;;;-0.56;92.17;98346.52;4419485;79;21122;-92
2021/01/01 05:55:01;;;;;;;89.50;32.17;;;;;;;-0.43;92.06;98349.60;4415631;79;21483;-90
2021/01/01 06:01:03;;;;;;;73.80;29.83;;;;;;;-0.36;91.78;98351.81;4400329;79;21773;-92
2021/01/01 06:07:08;;;;;;;76.07;30.37;;;;;;;-0.30;91.70;98357.25;4415582;79;21185;-92
2021/01/01 06:13:11;;;;;;;72.07;30.20;;;;;;;-0.33;91.52;98355.97;4418517;79;21166;-91
2021/01/01 06:19:13;;;;;;;77.93;32.30;;;;;;;-0.44;91.29;98369.52;4415325;79;21200;-92
2021/01/01 06:25:15;;;;;;;73.15;31.33;;;;;;;-0.50;91.35;98361.95;4415690;79;21173;-88
2021/01/01 06:31:17;;;;;;;84.00;31.53;;;;;;;-0.61;91.48;98357.44;4414159;79;21567;-91
2021/01/01 06:37:36;;;;;;;76.23;32.40;;;;;;;-0.67;91.44;98364.08;4418708;79;21611;-90
2021/01/01 06:43:55;;;;;;;70.37;27.73;;;;;;;-0.66;91.46;98367.00;4418452;79;21147;-87
2021/01/01 06:49:57;;;;;;;70.40;24.80;;;;;;;-0.92;91.12;98369.44;4427575;79;21805;-90
2021/01/01 06:56:12;;;;;;;75.87;29.40;;;;;;;-1.05;91.64;98372.51;4425345;79;21145;-90
2021/01/01 07:02:19;;;;;;;76.57;28.70;;;;;;;-1.08;91.94;98374.48;4424482;79;21270;-91
2021/01/01 07:08:43;;;;;;;69.70;28.20;;;;;;;-0.91;91.71;98382.56;4429876;79;21665;-90
2021/01/01 07:14:45;;;;;;;73.03;29.70;;;;;;;-0.88;91.30;98387.33;4425564;79;21129;-89
2021/01/01 07:20:47;;;;;;;73.87;30.43;;;;;;;-1.01;91.40;98379.39;4427364;79;21613;-90
2021/01/01 07:26:48;;;;;;;74.40;29.67;;;;;;;-1.08;91.50;98384.45;4428026;79;21140;-90
2021/01/01 07:32:50;;;;;;;71.43;31.23;;;;;;;-0.92;91.87;98389.59;4400195;79;21168;-89
2021/01/01 07:38:52;;;;;;;72.57;32.43;;;;;;;-0.81;91.87;98389.52;4397073;79;22279;-91
2021/01/01 07:44:55;;;;;;;71.17;30.93;;;;;;;-0.59;91.64;98393.41;4431198;79;21085;-90
2021/01/01 07:51:07;;;;;;;88.83;36.23;;;;;;;-0.62;91.12;98398.07;4429093;79;21604;-89
2021/01/01 07:57:09;;;;;;;76.87;33.13;;;;;;;-0.76;91.37;98393.41;4425499;79;21160;-90
2021/01/01 08:03:13;;;;;;;72.95;30.15;;;;;;;-0.71;91.65;98406.70;4427099;79;21539;-90
2021/01/01 08:09:14;;;;;;;77.10;32.93;;;;;;;-0.59;91.29;98408.19;4428991;79;21140;-91
2021/01/01 08:15:31;;;;;;;79.60;35.57;;;;;;;-0.78;91.49;98415.22;4426765;79;21141;-90
2021/01/01 08:21:37;;;;;;;85.27;34.70;;;;;;;-0.77;91.38;98409.30;4427691;79;21602;-91
2021/01/01 08:27:39;;;;;;;72.23;30.80;;;;;;;-0.66;91.33;98414.03;4426841;79;21583;-91
2021/01/01 08:33:42;;;;;;;76.43;31.73;;;;;;;-0.73;91.35;98411.05;4427672;79;21732;-90
2021/01/01 08:39:43;;;;;;;88.67;35.10;;;;;;;-0.85;91.46;98409.54;4429116;79;21181;-90
2021/01/01 08:45:45;;;;;;;91.43;36.07;;;;;;;-0.86;91.85;98417.91;4427189;79;21156;-91
2021/01/01 08:51:49;;;;;;;86.97;34.03;;;;;;;-0.63;91.60;98412.62;4429212;79;21145;-89
2021/01/01 08:57:51;;;;;;;85.63;32.90;;;;;;;-0.54;91.59;98414.77;4427125;79;21148;-90
2021/01/01 09:04:02;;;;;;;89.67;35.68;;;;;;;-0.44;91.64;98409.08;4427760;79;21638;-90
2021/01/01 09:10:19;;;;;;;75.53;30.53;;;;;;;-0.31;91.67;98411.59;4429238;79;21180;-90
2021/01/01 09:16:23;;;;;;;68.87;28.37;;;;;;;-0.35;91.47;98424.11;4426199;79;21658;-90
2021/01/01 09:22:24;;;;;;;81.42;33.40;;;;;;;-0.57;91.32;98416.73;4426226;79;21148;-89
2021/01/01 09:28:26;;;;;;;75.83;32.15;;;;;;;-0.36;91.56;98419.05;4429372;79;21133;-89
2021/01/01 09:34:27;;;;;;;73.87;33.40;;;;;;;-0.23;91.34;98425.59;4426727;79;21183;-90
2021/01/01 09:40:36;;;;;;;72.72;30.92;;;;;;;-0.30;91.03;98424.49;4428219;79;21140;-89
2021/01/01 09:46:44;;;;;;;79.15;33.53;;;;;;;-0.36;91.07;98426.53;4420002;79;21158;-89
2021/01/01 09:52:45;;;;;;;80.85;34.27;;;;;;;-0.24;91.00;98432.09;4412223;79;21133;-89
2021/01/01 09:58:46;;;;;;;72.58;32.23;;;;;;;-0.20;91.20;98430.87;4418945;79;21161;-89
2021/01/01 10:04:48;;;;;;;80.55;35.03;;;;;;;-0.36;91.18;98417.13;4396761;79;21208;-90
2021/01/01 10:10:52;;;;;;;71.62;32.28;;;;;;;0.26;91.26;98416.15;4418972;79;21153;-88
2021/01/01 10:16:53;;;;;;;79.15;32.98;;;;;;;0.26;91.26;98416.15;4418358;79;21173;-90
2021/01/01 10:22:55;;;;;;;79.07;35.17;;;;;;;0.49;91.09;98417.48;4415685;79;21638;-90
2021/01/01 10:28:56;;;;;;;82.02;33.65;;;;;;;0.51;90.83;98413.92;4394285;79;21149;-90
2021/01/01 10:34:58;;;;;;;72.50;32.75;;;;;;;0.65;90.69;98406.96;4418990;79;21592;-90
2021/01/01 10:41:02;;;;;;;81.37;35.75;;;;;;;0.75;90.79;98396.60;4417708;79;21638;-90
2021/01/01 10:47:03;;;;;;;91.72;37.20;;;;;;;0.85;90.73;98387.36;4444147;78;21180;-89
2021/01/01 10:53:04;;;;;;;83.70;36.28;;;;;;;1.00;90.69;98381.42;4451607;78;21170;-90
2021/01/01 10:59:06;;;;;;;89.42;38.67;;;;;;;1.20;90.79;98376.05;4443047;78;21142;-88
2021/01/01 11:05:10;;;;;;;82.10;34.38;;;;;;;1.26;90.47;98377.97;4448564;78;21153;-90
2021/01/01 11:11:15;;;;;;;97.25;38.17;;;;;;;1.22;90.34;98364.35;4447420;78;21831;-90
2021/01/01 12:28:11;;;;;;;85.70;37.08;;;;;;;1.59;90.08;98376.13;4407394;78;21154;-91
2021/01/01 12:34:13;;;;;;;80.53;35.03;;;;;;;1.62;89.90;98372.76;4417484;78;21198;-88
2021/01/01 12:40:15;;;;;;;82.92;37.15;;;;;;;1.61;89.71;98381.98;4434754;78;21189;-90
2021/01/01 12:46:17;;;;;;;80.05;34.73;;;;;;;1.49;89.57;98389.45;4427230;78;21136;-89
2021/01/01 12:52:20;;;;;;;85.70;36.35;;;;;;;1.39;89.38;98393.11;4429150;79;21682;-89
2021/01/01 12:58:22;;;;;;;93.42;38.20;;;;;;;1.19;89.39;98400.06;4423049;79;21597;-88
2021/01/01 13:04:23;;;;;;;87.95;38.38;;;;;;;1.14;89.73;98402.94;4427034;79;21809;-90
2021/01/01 13:10:25;;;;;;;92.47;38.85;;;;;;;1.11;90.08;98409.57;4423220;79;22365;-88
2021/01/01 13:16:28;;;;;;;109.92;43.65;;;;;;;0.94;89.91;98386.77;4420273;79;21156;-91
2021/01/01 13:22:30;;;;;;;103.05;40.88;;;;;;;0.94;89.91;98386.77;4396130;79;21645;-89
2021/01/01 13:28:31;;;;;;;105.03;42.13;;;;;;;0.97;89.78;98411.14;4423846;79;21172;-90
2021/01/01 13:34:33;;;;;;;105.75;41.83;;;;;;;0.84;89.75;98396.56;4424222;79;21160;-91
2021/01/01 13:40:34;;;;;;;97.97;39.85;;;;;;;0.90;89.68;98413.58;4418972;79;22336;-88
2021/01/01 13:46:37;;;;;;;98.05;38.75;;;;;;;0.77;89.68;98411.09;4410463;79;21303;-90
2021/01/01 13:52:38;;;;;;;95.97;40.35;;;;;;;0.72;89.76;98423.42;4438550;78;21158;-89
2021/01/01 13:58:40;;;;;;;112.70;45.00;;;;;;;0.63;89.78;98426.14;4446745;79;21146;-89
2021/01/01 14:04:41;;;;;;;103.12;42.35;;;;;;;0.41;89.79;98419.66;4442846;78;21141;-88
2021/01/01 14:10:44;;;;;;;110.72;46.85;;;;;;;0.25;89.90;98423.97;4446728;78;21637;-89
2021/01/01 14:16:49;;;;;;;108.03;43.42;;;;;;;0.18;89.94;98416.97;4445799;78;21211;-90
2021/01/01 14:22:50;;;;;;;113.35;41.85;;;;;;;0.00;89.89;98414.09;4443607;78;21968;-89
2021/01/01 14:28:52;;;;;;;105.37;42.53;;;;;;;-0.07;90.28;98409.19;4436020;78;21823;-90
2021/01/01 14:34:54;;;;;;;111.62;42.58;;;;;;;0.12;90.41;98443.81;4420826;79;21174;-90
2021/01/01 14:40:55;;;;;;;116.62;44.60;;;;;;;0.10;90.42;98455.99;4410003;79;21128;-89
2021/01/01 14:46:58;;;;;;;109.03;43.78;;;;;;;0.11;90.37;98461.06;4416698;78;21717;-90
2021/01/01 14:52:59;;;;;;;113.35;44.30;;;;;;;0.17;90.50;98464.39;4429287;78;21156;-93
2021/01/01 14:59:41;;;;;;;107.22;42.33;;;;;;;0.06;90.38;98468.52;4433984;78;21213;-91
2021/01/01 15:05:43;;;;;;;120.05;43.50;;;;;;;-0.10;90.39;98460.15;4442812;78;21164;-89
2021/01/01 15:11:44;;;;;;;121.67;44.42;;;;;;;-0.20;90.71;98466.64;4445367;78;21576;-90
2021/01/01 15:17:46;;;;;;;107.60;42.90;;;;;;;-0.16;90.62;98477.00;4451385;78;21598;-90
2021/01/01 15:23:48;;;;;;;119.05;44.27;;;;;;;-0.19;90.80;98482.23;4441239;78;21542;-88
2021/01/01 15:29:49;;;;;;;100.05;39.80;;;;;;;-0.21;90.59;98484.45;4449572;78;21148;-91
2021/01/01 15:35:51;;;;;;;98.92;39.33;;;;;;;-0.31;90.56;98482.86;4443987;78;22512;-91
2021/01/01 15:41:52;;;;;;;112.70;41.60;;;;;;;-0.33;90.75;98493.71;4442934;78;21751;-90
2021/01/01 15:47:54;;;;;;;111.83;41.37;;;;;;;-0.32;91.00;98491.25;4447019;78;21180;-92
2021/01/01 15:53:55;;;;;;;109.00;43.07;;;;;;;-0.29;90.95;98494.65;4452816;78;21784;-91
2021/01/01 15:59:57;;;;;;;113.70;44.17;;;;;;;-0.24;91.23;98502.56;4443407;78;21165;-89
2021/01/01 16:05:58;;;;;;;118.67;44.83;;;;;;;-0.24;91.22;98496.64;4443369;78;21204;-91
2021/01/01 16:12:00;;;;;;;116.33;45.30;;;;;;;-0.18;91.38;98487.30;4447388;77;21163;-90
2021/01/01 16:18:02;;;;;;;107.50;42.63;;;;;;;-0.21;91.17;98496.01;4447340;79;21161;-91
2021/01/01 16:24:10;;;;;;;124.82;47.13;;;;;;;-0.18;91.40;98494.57;4445544;78;21633;-91
2021/01/01 16:30:15;;;;;;;100.30;43.20;;;;;;;-0.20;91.23;98490.86;4452620;78;21158;-91
2021/01/01 16:36:25;;;;;;;125.00;50.67;;;;;;;-0.37;91.09;98498.92;4442001;78;21137;-91
2021/01/01 16:42:26;;;;;;;112.03;44.13;;;;;;;-0.51;91.54;98498.81;4448418;78;21137;-88
2021/01/01 16:48:28;;;;;;;111.97;43.90;;;;;;;-0.37;91.61;98508.33;4436285;79;21181;-90
2021/01/01 16:54:31;;;;;;;112.05;46.30;;;;;;;-0.43;91.36;98518.21;4443109;78;21645;-90
2021/01/01 17:00:33;;;;;;;105.50;44.73;;;;;;;-0.36;91.75;98527.39;4435576;78;21152;-90
2021/01/01 17:06:35;;;;;;;124.33;49.50;;;;;;;-0.29;91.62;98531.76;4430933;79;21177;-91
2021/01/01 17:12:36;;;;;;;110.28;46.18;;;;;;;-0.30;91.54;98545.52;4433113;79;21117;-91
2021/01/01 17:18:39;;;;;;;115.07;44.47;;;;;;;-0.31;91.39;98560.86;4437485;79;21161;-90
2021/01/01 17:24:42;;;;;;;109.87;46.20;;;;;;;-0.40;91.46;98543.92;4443845;78;21177;-92
2021/01/01 17:30:43;;;;;;;111.05;47.53;;;;;;;-0.38;91.61;98548.45;4425774;79;21192;-92
2021/01/01 17:36:45;;;;;;;123.00;50.10;;;;;;;-0.32;91.70;98557.94;4443882;78;21193;-91
2021/01/01 17:42:46;;;;;;;115.07;46.03;;;;;;;-0.31;91.71;98566.23;4443996;78;21157;-90
2021/01/01 17:56:17;;;;;;;118.47;46.57;;;;;;;-0.31;91.40;98593.13;4424387;78;21138;-89
2021/01/01 18:02:18;;;;;;;123.90;48.10;;;;;;;-0.41;91.50;98589.95;4448460;78;21173;-90
2021/01/01 18:08:21;;;;;;;121.03;46.33;;;;;;;-0.36;91.93;98595.97;4436564;78;21211;-90
2021/01/01 18:14:23;;;;;;;127.50;48.73;;;;;;;-0.31;91.56;98604.44;4443775;78;21594;-90
2021/01/01 18:20:25;;;;;;;114.40;47.87;;;;;;;-0.41;91.83;98606.86;4442042;78;21350;-91
2021/01/01 18:26:27;;;;;;;128.35;49.45;;;;;;;-0.36;91.63;98601.92;4437161;78;21150;-89
2021/01/01 18:32:31;;;;;;;114.92;48.58;;;;;;;-0.32;91.95;98605.55;4444276;78;21574;-90
2021/01/01 18:38:36;;;;;;;116.50;46.00;;;;;;;-0.37;91.61;98604.34;4446831;78;21185;-90
2021/01/01 18:44:38;;;;;;;145.28;54.58;;;;;;;-0.35;91.71;98607.52;4437064;78;21808;-89
2021/01/01 18:50:43;;;;;;;114.67;44.13;;;;;;;-0.40;91.62;98612.50;4425826;79;21148;-91
2021/01/01 18:56:48;;;;;;;119.27;47.73;;;;;;;-0.43;91.87;98626.58;4424273;79;21136;-92
2021/01/01 19:03:03;;;;;;;104.27;41.20;;;;;;;-0.49;92.16;98625.14;4426122;79;21133;-91
2021/01/01 19:09:08;;;;;;;103.17;42.40;;;;;;;-0.41;91.83;98628.37;4427459;79;21188;-89
2021/01/01 19:15:14;;;;;;;122.53;46.70;;;;;;;-0.72;91.95;98618.80;4422115;79;21160;-90
2021/01/01 19:21:24;;;;;;;105.83;42.63;;;;;;;-0.58;92.22;98618.14;4424523;79;21180;-91
2021/01/01 19:27:45;;;;;;;114.80;44.70;;;;;;;-0.51;91.96;98624.65;4426222;79;21598;-89
2021/01/01 19:34:30;;;;;;;109.97;45.77;;;;;;;-0.64;91.62;98641.67;4425078;79;21144;-89
2021/01/01 19:40:46;;;;;;;113.47;47.03;;;;;;;-0.90;91.95;98644.80;4426843;79;21145;-89
2021/01/01 19:47:27;;;;;;;93.22;38.92;;;;;;;-1.03;92.09;98645.67;4432604;78;21208;-91
2021/01/01 19:54:08;;;;;;;99.93;39.97;;;;;;;-1.15;92.48;98651.36;4428793;79;21146;-89
2021/01/01 20:00:17;;;;;;;101.33;40.60;;;;;;;-1.08;92.59;98665.16;4442466;78;21130;-90
2021/01/01 20:06:21;;;;;;;108.20;43.00;;;;;;;-0.94;92.33;98672.02;4442979;79;21629;-90
2021/01/01 20:12:40;;;;;;;106.67;42.90;;;;;;;-0.91;92.17;98673.32;4436548;79;21180;-90
2021/01/01 20:18:44;;;;;;;97.13;40.60;;;;;;;-0.87;92.32;98675.63;4433872;79;21335;-90
2021/01/01 20:24:49;;;;;;;97.50;40.57;;;;;;;-0.87;92.29;98679.66;4433687;79;21372;-90
2021/01/01 20:31:01;;;;;;;82.90;34.70;;;;;;;-0.96;91.85;98680.97;4428241;78;21149;-90
2021/01/01 20:37:08;;;;;;;103.03;40.80;;;;;;;-1.07;92.10;98686.34;4440748;79;21165;-90
2021/01/01 20:43:35;;;;;;;105.37;43.23;;;;;;;-1.03;92.24;98689.19;4435056;78;21538;-90
2021/01/01 20:56:19;;;;;;;110.10;43.60;;;;;;;-0.87;92.31;98709.22;4421169;79;21168;-89
2021/01/01 21:02:20;;;;;;;109.40;44.60;;;;;;;-0.82;92.41;98712.58;4422160;79;22176;-90
2021/01/01 21:08:36;;;;;;;115.13;44.80;;;;;;;-0.79;92.42;98723.26;4423766;79;21109;-89
2021/01/01 21:15:12;;;;;;;106.47;43.85;;;;;;;-0.75;92.50;98724.25;4423459;79;21105;-90
2021/01/01 21:21:48;;;;;;;111.83;42.83;;;;;;;-0.73;92.35;98737.61;4426797;79;21137;-90
2021/01/01 21:28:36;;;;;;;106.13;42.63;;;;;;;-0.80;92.07;98733.77;4426788;79;21132;-90
2021/01/01 21:35:11;;;;;;;112.83;42.77;;;;;;;-0.86;92.06;98736.35;4423543;79;21133;-90
2021/01/01 21:41:57;;;;;;;98.70;40.83;;;;;;;-0.94;92.26;98740.55;4427894;79;21137;-89
2021/01/01 21:48:23;;;;;;;108.37;41.65;;;;;;;-1.04;92.20;98744.84;4427060;79;21623;-90
2021/01/01 21:54:24;;;;;;;109.53;44.53;;;;;;;-1.04;92.62;98746.72;4445203;78;21138;-89
2021/01/01 22:00:26;;;;;;;115.00;43.83;;;;;;;-0.97;92.52;98753.25;4446929;78;21125;-90
2021/01/01 22:06:27;;;;;;;111.80;42.47;;;;;;;-1.00;92.38;98757.89;4446100;78;21148;-90
2021/01/01 22:12:29;;;;;;;123.17;46.23;;;;;;;-1.04;92.34;98754.78;4453158;78;21110;-90
2021/01/01 22:18:31;;;;;;;105.67;43.33;;;;;;;-1.01;92.34;98748.25;4450728;78;21697;-91
2021/01/01 22:24:32;;;;;;;117.83;44.20;;;;;;;-1.01;92.29;98746.91;4451559;78;21136;-90
2021/01/01 22:30:34;;;;;;;112.00;42.60;;;;;;;-1.07;92.19;98750.82;4443858;78;21130;-90
2021/01/01 22:36:36;;;;;;;107.80;41.90;;;;;;;-1.12;92.22;98747.45;4445267;78;21177;-90
2021/01/01 22:42:37;;;;;;;106.40;41.50;;;;;;;-1.15;92.34;98740.00;4444275;78;21366;-90
2021/01/01 22:48:39;;;;;;;97.43;40.10;;;;;;;-1.09;92.68;98740.92;4458990;78;21179;-90
2021/01/01 22:54:41;;;;;;;104.20;40.77;;;;;;;-1.00;92.71;98757.12;4467819;78;21192;-90
2021/01/01 23:00:44;;;;;;;99.57;41.40;;;;;;;-1.15;92.35;98763.63;4459220;78;21133;-89
2021/01/01 23:06:45;;;;;;;104.53;41.53;;;;;;;-1.18;92.65;98755.38;4448888;79;21168;-91
2021/01/01 23:12:48;;;;;;;96.10;39.10;;;;;;;-1.13;92.67;98755.27;4395308;78;21113;-91
2021/01/01 23:19:00;;;;;;;90.20;39.13;;;;;;;-1.10;92.67;98762.17;4417982;78;21102;-89
2021/01/01 23:25:07;;;;;;;98.73;39.67;;;;;;;-1.03;92.59;98768.45;4441589;79;21587;-89
2021/01/01 23:31:30;;;;;;;97.47;40.83;;;;;;;-1.14;92.17;98761.75;4437604;78;21113;-89
2021/01/01 23:37:39;;;;;;;88.87;36.77;;;;;;;-1.29;92.05;98767.45;4429755;78;21718;-89
2021/01/01 23:44:06;;;;;;;95.33;37.33;;;;;;;-1.23;92.74;98775.09;4430332;78;21129;-90
2021/01/01 23:50:09;;;;;;;;;;;;;;;-1.18;92.56;98784.39;4408241;79;21369;-90
2021/01/01 23:56:11;;;;;;;71.43;29.73;;;;;;;-1.29;91.97;98778.20;4415089;79;20197;-90
